Timeline UpdatesTrip UpdatesNews PostsPvt PostsTravel TipsAdmin PostsConv PostsFollowed PostsChat RequestsBlog PostsPNR Posts

Disclaimer
Search
 
 
Sat Jul 26, 2014 16:40:41 ISTHomeTrainsΣChainsAtlasPNRForumGalleryNewsFAQTripsMembersLoginFeedback
No Recent News for this Train
Other Trains in the News **new
Latest...
Renumbered as 22646 wef 12/7/14
Tue May 13, 2014 (02:58PM)
⇐ Return Journey: Train# 22645

16326⇒22646/Ahilya Nagari Express

Jul 13 (7:00PM)
Change Departure Station:
Change Arrival Station:
Post a Train Travel TipPost a Train Travel Tip **new
Post a Comment/Question/Picture/VideoPost a Comment/Question/Picture/Video
Pantry/Catering
✓ Pantry Car Avbl
✓ Catering Avbl
Loco/Rake Reversals
SRR/Shoranur Junction (7); MAS/Chennai Central (12); UJN/Ujjain Junction (8);
RSA - Rake Sharing
22641/22642)<-->(22645/22646)<-->(22647/22648) <--> (12643/2644); Entry# 1149704
Rake/Coach Composition
Loco-Gen-Gen-S11-S10-S9-S8-S7-S6-S5-S4-S3-S2-PC-S1-A1-B2-B1-Gen-HCPV-SLRD
Loco
WAP 4 RPM/ED
News    PNR    Forum    Time-Table    Availability    Fare Chart    Map    Arr/Dep History    Trips    Gallery    ΣChains    X/O    Timeline    
Travel Time: 0h 43m    0 halts    Distance: 50 km    Avg Speed: 69 km/hr
Type: SuperFast
Zone: SR/Southern
Departs @ 15:25 (Avg 29m late)
Platform# ???
      S
Coimbatore Main Junction/CBE 
Arrives @ 16:08 (Avg 35m late)
Platform# 2
      S
Tiruppur/TUP 

0 halts. 7 intermediate Stations between Coimbatore Main Junction and Tiruppur

Show ALL intermediate Stations  Show Old Time-Table

#CodeStation NameX/OArrivesAvgDepartsAvgHaltPFDay#KmSpeedElevZoneAddress
1TVCTrivandrum Central (5)  -06:15+0--1-413.27012mSRThiruvananthapuram 695001, Kerala
2QLNKollam Junction (6)X  07:10+507:15+35m21-348.67416mSRKollam 0474-2746194, Kerala
3KYJKayamkulam Junction (5)X  07:48+807:50+82m--1-307.85711mSRAlappuzha Ph;0479-2442042, Kerala
4HADHarippad (2)  08:04+708:06+182m11-294.5607mSRHaripad 0479-2412714, Kerala
5AMPAAmbalappuzha (1)  08:24+2508:26+262m11-276.6676mSRph 0477-2272620, Kerala
6ALLPAlappuzha (3)  08:37+3008:40+293m11-264.4698mSRPh:0477-2253965, Kerala
7SRTLCherthala (3)X  09:01+2209:03+222m21-240.3327mSRPh: 0478- 2812500, Kerala
8ERSErnakulam Junction (South) (6)  10:05+2510:10+325m31-206.9423mSRErnakulam 682016, Kerala
9AWYAluva (3)X  10:38+3510:40+362m--1-187.55512mSRPh: 0484-2624141, Kerala
10AFKAngamaly for Kalady (3)  10:50+3910:52+392m--1-178.37616mSRPhone: 0484-2452340, Kerala
11CKIChalakkudy (3)  11:04+3811:06+382m21-163.0779mSRPh: 0480- 2701368, Kerala
12IJKIrinjalakkuda (2)X  11:11+4111:13+402m--1-156.64918mSRKalletumkara, Kerala
13TCRThrissur (4)  11:42+3311:45+333m21-132.9586mSRThrissur Tel: 0487 2423150, Kerala
14WKIWadakkanchery (2)X  12:02+3312:04+342m21-116.51940mSRWadackanchery, Kerala
15SRRShoranur Junction (7)12:55+2313:05+3610m41-99.94326mSRShoranur ph.no 0466-2222913, Kerala
16OTPOttappalam (2)X  13:23+3913:25+382m--1-87.15430mSROttapalam, Kerala
17PGTPalakkad Junction (4)X  14:00+2614:05+275m21-55.34484mSRPalghat Tel: 0491 2555231, Kerala
18CBE»Coimbatore Main Junction (6)»  15:20+2615:25+295m--10.070416mSRCoimbatore 641001, Tamil Nadu
19TUP•Tiruppur (2)•  16:08+3516:10+352m2150.555305mSRTiruppur. Ph:0421-2200450, Tamil Nadu
20EDErode Junction (4)X  17:05+2217:15+4010m11100.774175mSRErode ph.no: 0424-2256111, Tamil Nadu
21SASalem Junction (6)  18:05+4318:10+425m--1162.074283mSRSalem, Tamil Nadu
22JTJJolarpettai Junction (5)X  19:48+4319:50+432m21282.380405mSRJolarpettai, Tamil Nadu
23KPDKatpadi Junction (5)X  20:53+4920:55+492m21366.160213mSRVellore 632007, Tamil Nadu
24MASChennai Central (12)X23:05+4923:25+5820m61495.6639mSRChennai 600003, Tamil Nadu
25GDRGudur Junction (3)X  01:35+1:0701:37+1:072m22632.99619mSCRGudur, Andhra Pradesh
26NLRNellore (4)  02:01+1:1102:03+1:112m22671.48221mSCRNellore, Andhra Pradesh
27OGLOngole (3)  03:28+1:2203:30+1:232m12788.28712mSCROngole, Andhra Pradesh
28CLXChirala (4)  04:04+1:1804:06+1:182m--2837.5748mSCRChirala, Andhra Pradesh
29TELTenali Junction (5)O  04:53+3804:55+382m42895.22716mSCRTel: 08644-227834, Andhra Pradesh
30BZAVijayawada Junction (10)X  06:05+4106:20+5515m102926.48624mSCRVijayawada 520001, Andhra Pradesh
31KMTKhammam (2)  07:30+1:3007:32+1:292m221026.860118mSCRKhammam 507001, Telangana
32WLWarangal (3)O  09:20+1:1309:22+1:162m321134.484271mSCRWarangal., Telangana
33RDMRamagundam (3)  10:34+1:2710:36+1:352m121235.582170mSCRKarimnagar Dist. Ph : 08728 - 255237, Telangana
34MCIManchiryal (3)X  10:46+1:3810:48+1:422m121249.360159mSCRAdilabad Dist., Telangana
35BPABellampalli (3)  11:08+1:4311:10+1:432m121269.192205mSCRTel:.08735 223298, Telangana
36SKZRSirpur Kaghaznagar (3)X  11:35+1:5311:37+1:532m121307.648181mSCRAdilabad Dist., Telangana
37BPQBalharshah Junction (5)X  13:05+1:2513:15+1:3010m--21377.443188mCRBallarpur. Ph : 07172 - 240341, Maharashtra
38CDChandrapur Maharashtra (3)X  13:34+1:2413:35+1:271m--21391.187194mCRChandrapur 442401, Maharashtra
39HGTHinganghat (3)  14:34+1:4714:35+1:481m121476.634228mCRHinganghat, Maharashtra
40SEGMSewagram Junction (5)X  15:34+1:2815:35+1:291m121509.761279mCRWardha, Maharashtra
41NGPNagpur Junction (8)  16:50+1:1117:00+1:1010m--21585.975314mCRNagpur 440001, Maharashtra
42PARPandhurna (2)  18:24+1:2318:25+1:231m--21690.358481mCRDistt: Chhindwara, Madhya Pradesh
43AMLAAmla Junction (5)X  19:31+1:1819:33+1:182m221753.986733mCRAmla Distt. Betul, Madhya Pradesh
44BZUBetul (3)  19:49+1:2819:50+1:281m221776.855644mCRBetul, Madhya Pradesh
45GDYAGhoradongri (3)O  20:29+1:3320:30+1:331m--21812.740410mCRBetul, Madhya Pradesh
46ETItarsi Junction (7)  22:15+1:0222:20+1:135m121883.152329mWCRItarsi 461111, Madhya Pradesh
47BPLBhopal Junction (6)  00:05+1:0900:10+1:135m431974.867497mWCRBhopal, Madhya Pradesh
48SJPShujalpur (3)  01:22+1:4801:23+1:471m132055.159453mWRShujalpur, Madhya Pradesh
49UJNUjjain Junction (8)03:10+1:0403:30+1:1120m632160.158492mWRUjjain 456001, Madhya Pradesh
50DWXDewas Junction (2)  04:12+1:1704:14+1:192m132200.538541mWRDewas, Madhya Pradesh
51INDBIndore Junction BG (3)  05:15+56-432239.3-552mWRIndore, Madhya Pradesh
Scroll to Top
Scroll to Bottom